sensor_id;sensor_type;location;lat;lon;timestamp;pressure;altitude;pressure_sealevel;temperature;humidity
43161;BME280;40968;52.342;5.528;2023-01-29T00:01:09;102984.47;;;3.42;72.32
43161;BME280;40968;52.342;5.528;2023-01-29T00:03:36;102981.75;;;3.48;72.30
43161;BME280;40968;52.342;5.528;2023-01-29T00:06:05;102792.97;;;2.39;72.18
43161;BME280;40968;52.342;5.528;2023-01-29T00:08:33;102954.50;;;3.34;72.16
43161;BME280;40968;52.342;5.528;2023-01-29T00:11:00;102759.63;;;2.18;72.10
43161;BME280;40968;52.342;5.528;2023-01-29T00:13:27;102917.59;;;3.15;72.08
43161;BME280;40968;52.342;5.528;2023-01-29T00:15:54;102742.00;;;2.15;72.20
43161;BME280;40968;52.342;5.528;2023-01-29T00:18:21;102929.81;;;3.28;72.31
43161;BME280;40968;52.342;5.528;2023-01-29T00:20:48;102919.41;;;3.10;72.30
43161;BME280;40968;52.342;5.528;2023-01-29T00:23:16;102907.03;;;3.12;72.41
43161;BME280;40968;52.342;5.528;2023-01-29T00:25:43;102782.38;;;2.36;72.20
43161;BME280;40968;52.342;5.528;2023-01-29T00:28:10;102872.00;;;2.82;72.37
43161;BME280;40968;52.342;5.528;2023-01-29T00:30:37;102965.00;;;3.46;72.34
43161;BME280;40968;52.342;5.528;2023-01-29T00:33:04;102974.63;;;3.55;72.44
43161;BME280;40968;52.342;5.528;2023-01-29T00:35:31;102930.81;;;3.18;72.68
43161;BME280;40968;52.342;5.528;2023-01-29T00:37:58;102985.22;;;3.55;72.55
43161;BME280;40968;52.342;5.528;2023-01-29T00:40:27;102961.47;;;3.44;72.34
43161;BME280;40968;52.342;5.528;2023-01-29T00:43:13;102983.47;;;3.55;72.62
43161;BME280;40968;52.342;5.528;2023-01-29T00:45:58;102697.22;;;1.92;72.58
43161;BME280;40968;52.342;5.528;2023-01-29T00:48:24;102734.03;;;2.18;72.51
43161;BME280;40968;52.342;5.528;2023-01-29T00:50:51;102678.75;;;1.87;72.35
43161;BME280;40968;52.342;5.528;2023-01-29T00:53:17;102845.53;;;2.79;72.63
43161;BME280;40968;52.342;5.528;2023-01-29T00:55:45;102815.66;;;2.64;72.47
43161;BME280;40968;52.342;5.528;2023-01-29T00:58:12;102916.63;;;3.25;72.70
43161;BME280;40968;52.342;5.528;2023-01-29T01:00:46;102712.06;;;2.10;72.60
43161;BME280;40968;52.342;5.528;2023-01-29T01:03:13;102903.38;;;3.25;72.58
43161;BME280;40968;52.342;5.528;2023-01-29T01:05:38;102587.50;;;1.40;72.71
43161;BME280;40968;52.342;5.528;2023-01-29T01:08:07;102958.78;;;3.50;72.69
43161;BME280;40968;52.342;5.528;2023-01-29T01:11:00;102947.28;;;3.51;72.93
43161;BME280;40968;52.342;5.528;2023-01-29T01:13:26;102839.34;;;2.80;72.63
43161;BME280;40968;52.342;5.528;2023-01-29T01:15:53;102915.63;;;3.36;72.83
43161;BME280;40968;52.342;5.528;2023-01-29T01:18:20;102872.66;;;3.06;72.82
43161;BME280;40968;52.342;5.528;2023-01-29T01:20:47;102956.94;;;3.54;72.82
43161;BME280;40968;52.342;5.528;2023-01-29T01:23:16;102898.13;;;3.19;72.74
43161;BME280;40968;52.342;5.528;2023-01-29T01:25:43;102927.13;;;3.33;72.63
43161;BME280;40968;52.342;5.528;2023-01-29T01:28:11;102861.28;;;2.94;72.73
43161;BME280;40968;52.342;5.528;2023-01-29T01:30:38;102948.25;;;3.42;72.60
43161;BME280;40968;52.342;5.528;2023-01-29T01:33:05;102933.31;;;3.34;72.65
43161;BME280;40968;52.342;5.528;2023-01-29T01:35:31;102955.22;;;3.51;72.61
43161;BME280;40968;52.342;5.528;2023-01-29T01:37:58;102956.13;;;3.50;72.58
43161;BME280;40968;52.342;5.528;2023-01-29T01:40:25;102938.56;;;3.40;72.78
43161;BME280;40968;52.342;5.528;2023-01-29T01:42:53;102672.63;;;1.80;72.48
43161;BME280;40968;52.342;5.528;2023-01-29T01:45:25;102899.88;;;3.20;72.67
43161;BME280;40968;52.342;5.528;2023-01-29T01:47:56;102850.78;;;2.84;72.72
43161;BME280;40968;52.342;5.528;2023-01-29T01:50:29;102849.00;;;2.84;72.69
43161;BME280;40968;52.342;5.528;2023-01-29T01:52:59;102868.34;;;2.95;72.74
43161;BME280;40968;52.342;5.528;2023-01-29T01:55:28;102926.25;;;3.32;72.76
43161;BME280;40968;52.342;5.528;2023-01-29T01:58:03;102905.19;;;3.20;72.82
43161;BME280;40968;52.342;5.528;2023-01-29T02:00:33;102906.97;;;3.20;72.78
43161;BME280;40968;52.342;5.528;2023-01-29T02:03:00;102951.00;;;3.31;72.91
43161;BME280;40968;52.342;5.528;2023-01-29T02:05:45;102856.94;;;2.87;72.81
43161;BME280;40968;52.342;5.528;2023-01-29T02:08:35;102846.41;;;2.81;72.87
43161;BME280;40968;52.342;5.528;2023-01-29T02:11:21;102910.50;;;3.19;72.95
43161;BME280;40968;52.342;5.528;2023-01-29T02:13:48;102965.81;;;3.49;72.77
43161;BME280;40968;52.342;5.528;2023-01-29T02:16:20;102481.50;;;0.68;72.39
43161;BME280;40968;52.342;5.528;2023-01-29T02:18:48;102914.06;;;3.16;72.79
43161;BME280;40968;52.342;5.528;2023-01-29T02:21:30;102963.19;;;3.48;72.80
43161;BME280;40968;52.342;5.528;2023-01-29T02:24:14;102868.34;;;2.95;72.41
43161;BME280;40968;52.342;5.528;2023-01-29T02:26:58;102713.91;;;1.98;72.75
43161;BME280;40968;52.342;5.528;2023-01-29T02:29:33;102887.69;;;3.02;72.66
43161;BME280;40968;52.342;5.528;2023-01-29T02:32:21;102972.84;;;3.54;72.58
43161;BME280;40968;52.342;5.528;2023-01-29T02:34:59;102912.25;;;3.18;72.26
43161;BME280;40968;52.342;5.528;2023-01-29T02:37:53;102728.81;;;2.10;72.18
43161;BME280;40968;52.342;5.528;2023-01-29T02:40:27;102651.59;;;1.65;72.15
43161;BME280;40968;52.342;5.528;2023-01-29T02:43:02;102987.91;;;3.53;72.55
43161;BME280;40968;52.342;5.528;2023-01-29T02:45:35;102981.72;;;3.53;72.34
43161;BME280;40968;52.342;5.528;2023-01-29T02:48:04;102746.34;;;2.22;72.40
43161;BME280;40968;52.342;5.528;2023-01-29T02:50:37;102922.94;;;3.12;72.20
43161;BME280;40968;52.342;5.528;2023-01-29T02:53:09;102971.97;;;3.53;72.17
43161;BME280;40968;52.342;5.528;2023-01-29T02:55:42;102875.34;;;2.99;72.17
43161;BME280;40968;52.342;5.528;2023-01-29T02:58:16;102963.16;;;3.54;72.47
43161;BME280;40968;52.342;5.528;2023-01-29T03:00:46;102891.97;;;3.17;72.48
43161;BME280;40968;52.342;5.528;2023-01-29T03:03:16;102663.81;;;1.81;72.40
43161;BME280;40968;52.342;5.528;2023-01-29T03:05:50;102748.91;;;2.35;72.48
43161;BME280;40968;52.342;5.528;2023-01-29T03:08:26;102733.16;;;2.19;72.30
43161;BME280;40968;52.342;5.528;2023-01-29T03:11:03;102941.06;;;3.51;72.73
43161;BME280;40968;52.342;5.528;2023-01-29T03:13:35;102891.94;;;3.20;72.74
43161;BME280;40968;52.342;5.528;2023-01-29T03:16:07;102866.59;;;2.91;72.79
43161;BME280;40968;52.342;5.528;2023-01-29T03:18:39;102835.78;;;2.86;72.66
43161;BME280;40968;52.342;5.528;2023-01-29T03:21:13;102823.44;;;2.81;72.69
43161;BME280;40968;52.342;5.528;2023-01-29T03:23:59;102939.34;;;3.48;72.95
43161;BME280;40968;52.342;5.528;2023-01-29T03:26:43;102889.22;;;3.26;72.95
43161;BME280;40968;52.342;5.528;2023-01-29T03:29:29;102870.78;;;3.17;73.16
43161;BME280;40968;52.342;5.528;2023-01-29T03:32:16;102859.25;;;3.18;72.83
43161;BME280;40968;52.342;5.528;2023-01-29T03:34:47;102866.25;;;3.25;72.46
43161;BME280;40968;52.342;5.528;2023-01-29T03:37:20;102809.19;;;2.93;72.96
43161;BME280;40968;52.342;5.528;2023-01-29T03:39:49;102844.38;;;3.05;72.95
43161;BME280;40968;52.342;5.528;2023-01-29T03:42:20;102859.38;;;3.07;73.03
43161;BME280;40968;52.342;5.528;2023-01-29T03:44:56;102704.06;;;2.19;72.88
43161;BME280;40968;52.342;5.528;2023-01-29T03:47:36;102903.16;;;3.44;72.88
43161;BME280;40968;52.342;5.528;2023-01-29T03:50:09;102799.56;;;2.86;72.94
43161;BME280;40968;52.342;5.528;2023-01-29T03:52:40;102659.22;;;2.04;72.46
43161;BME280;40968;52.342;5.528;2023-01-29T03:55:13;102896.09;;;3.43;72.77
43161;BME280;40968;52.342;5.528;2023-01-29T03:57:44;102847.84;;;3.14;72.71
43161;BME280;40968;52.342;5.528;2023-01-29T04:00:16;102892.59;;;3.41;72.46
43161;BME280;40968;52.342;5.528;2023-01-29T04:02:51;102760.91;;;2.67;72.53
43161;BME280;40968;52.342;5.528;2023-01-29T04:05:24;102779.34;;;2.77;72.56
43161;BME280;40968;52.342;5.528;2023-01-29T04:07:56;102889.94;;;3.39;72.48
43161;BME280;40968;52.342;5.528;2023-01-29T04:10:28;102888.22;;;3.38;72.26
43161;BME280;40968;52.342;5.528;2023-01-29T04:12:58;102622.34;;;1.87;72.35
43161;BME280;40968;52.342;5.528;2023-01-29T04:15:29;102852.31;;;3.09;72.36
43161;BME280;40968;52.342;5.528;2023-01-29T04:18:00;102663.59;;;2.06;72.47
43161;BME280;40968;52.342;5.528;2023-01-29T04:20:27;102873.31;;;3.28;72.67
43161;BME280;40968;52.342;5.528;2023-01-29T04:22:54;102885.53;;;3.37;72.62
43161;BME280;40968;52.342;5.528;2023-01-29T04:25:25;102803.91;;;2.92;72.42
43161;BME280;40968;52.342;5.528;2023-01-29T04:28:00;102601.31;;;1.76;72.44
43161;BME280;40968;52.342;5.528;2023-01-29T04:30:38;102777.59;;;2.75;72.53
43161;BME280;40968;52.342;5.528;2023-01-29T04:33:18;102575.03;;;1.57;72.31
43161;BME280;40968;52.342;5.528;2023-01-29T04:35:57;102771.47;;;2.73;72.40
43161;BME280;40968;52.342;5.528;2023-01-29T04:38:34;102680.19;;;2.22;72.48
43161;BME280;40968;52.342;5.528;2023-01-29T04:41:09;102851.28;;;3.23;72.38
43161;BME280;40968;52.342;5.528;2023-01-29T04:43:41;102596.06;;;1.70;72.34
43161;BME280;40968;52.342;5.528;2023-01-29T04:46:14;102612.72;;;1.81;72.26
43161;BME280;40968;52.342;5.528;2023-01-29T04:48:54;102765.31;;;2.69;72.54
43161;BME280;40968;52.342;5.528;2023-01-29T04:51:33;102612.66;;;1.89;72.32
43161;BME280;40968;52.342;5.528;2023-01-29T04:54:06;102787.03;;;3.01;72.68
43161;BME280;40968;52.342;5.528;2023-01-29T04:56:38;102653.75;;;2.22;72.37
43161;BME280;40968;52.342;5.528;2023-01-29T04:59:10;102722.16;;;2.59;72.44
43161;BME280;40968;52.342;5.528;2023-01-29T05:01:38;102754.66;;;2.75;72.76
43161;BME280;40968;52.342;5.528;2023-01-29T05:04:09;102543.31;;;1.56;72.54
43161;BME280;40968;52.342;5.528;2023-01-29T05:06:38;102678.34;;;2.32;72.54
43161;BME280;40968;52.342;5.528;2023-01-29T05:09:05;102731.88;;;2.59;72.61
43161;BME280;40968;52.342;5.528;2023-01-29T05:11:34;102551.25;;;1.59;72.31
43161;BME280;40968;52.342;5.528;2023-01-29T05:14:04;102785.44;;;2.87;72.31
43161;BME280;40968;52.342;5.528;2023-01-29T05:16:36;102637.16;;;2.06;72.60
43161;BME280;40968;52.342;5.528;2023-01-29T05:19:08;102843.28;;;3.26;72.42
43161;BME280;40968;52.342;5.528;2023-01-29T05:21:34;102781.06;;;2.81;72.50
43161;BME280;40968;52.342;5.528;2023-01-29T05:24:09;102779.34;;;2.76;72.54
43161;BME280;40968;52.342;5.528;2023-01-29T05:26:36;102677.56;;;2.22;72.50
43161;BME280;40968;52.342;5.528;2023-01-29T05:29:20;102530.25;;;1.39;72.58
43161;BME280;40968;52.342;5.528;2023-01-29T05:31:47;102769.69;;;2.72;72.58
43161;BME280;40968;52.342;5.528;2023-01-29T05:34:15;102861.84;;;3.24;72.58
43161;BME280;40968;52.342;5.528;2023-01-29T05:36:41;102646.16;;;1.85;72.77
43161;BME280;40968;52.342;5.528;2023-01-29T05:39:08;102738.13;;;2.50;72.80
43161;BME280;40968;52.342;5.528;2023-01-29T05:41:35;102867.09;;;3.27;72.72
43161;BME280;40968;52.342;5.528;2023-01-29T05:44:01;102841.63;;;3.17;72.74
43161;BME280;40968;52.342;5.528;2023-01-29T05:46:28;102834.50;;;3.19;72.72
43161;BME280;40968;52.342;5.528;2023-01-29T05:48:55;102795.81;;;3.06;72.62
43161;BME280;40968;52.342;5.528;2023-01-29T05:51:23;102591.53;;;1.82;72.63
43161;BME280;40968;52.342;5.528;2023-01-29T05:53:50;102792.28;;;3.04;72.76
43161;BME280;40968;52.342;5.528;2023-01-29T05:56:16;102585.31;;;1.88;72.69
43161;BME280;40968;52.342;5.528;2023-01-29T05:58:43;102832.66;;;3.27;72.65
43161;BME280;40968;52.342;5.528;2023-01-29T06:01:10;102817.66;;;3.26;72.73
43161;BME280;40968;52.342;5.528;2023-01-29T06:03:37;102658.91;;;2.35;72.68
43161;BME280;40968;52.342;5.528;2023-01-29T06:06:04;102737.78;;;2.82;72.95
43161;BME280;40968;52.342;5.528;2023-01-29T06:08:33;102803.53;;;3.26;72.96
43161;BME280;40968;52.342;5.528;2023-01-29T06:10:59;102704.50;;;2.61;72.91
43161;BME280;40968;52.342;5.528;2023-01-29T06:13:26;102729.88;;;2.81;73.05
43161;BME280;40968;52.342;5.528;2023-01-29T06:15:52;102772.91;;;3.02;73.27
43161;BME280;40968;52.342;5.528;2023-01-29T06:18:19;102739.47;;;2.91;73.29
43161;BME280;40968;52.342;5.528;2023-01-29T06:20:46;102736.00;;;2.86;73.10
43161;BME280;40968;52.342;5.528;2023-01-29T06:23:12;102760.56;;;3.01;73.51
43161;BME280;40968;52.342;5.528;2023-01-29T06:25:40;102763.22;;;2.96;73.35
43161;BME280;40968;52.342;5.528;2023-01-29T06:28:07;102786.81;;;3.19;73.31
43161;BME280;40968;52.342;5.528;2023-01-29T06:30:34;102801.84;;;3.19;73.42
43161;BME280;40968;52.342;5.528;2023-01-29T06:33:00;102592.34;;;1.89;73.02
43161;BME280;40968;52.342;5.528;2023-01-29T06:35:27;102648.44;;;2.22;73.31
43161;BME280;40968;52.342;5.528;2023-01-29T06:37:55;102802.78;;;3.16;73.48
43161;BME280;40968;52.342;5.528;2023-01-29T06:40:21;102592.31;;;1.92;73.54
43161;BME280;40968;52.342;5.528;2023-01-29T06:42:49;102768.53;;;2.96;73.31
43161;BME280;40968;52.342;5.528;2023-01-29T06:45:16;102749.28;;;2.83;73.51
43161;BME280;40968;52.342;5.528;2023-01-29T06:47:43;102687.00;;;2.48;73.52
43161;BME280;40968;52.342;5.528;2023-01-29T06:50:10;102807.19;;;3.14;73.53
43161;BME280;40968;52.342;5.528;2023-01-29T06:52:37;102737.88;;;2.75;73.31
43161;BME280;40968;52.342;5.528;2023-01-29T06:55:05;102583.53;;;1.90;73.16
43161;BME280;40968;52.342;5.528;2023-01-29T06:57:31;102752.75;;;2.90;73.49
43161;BME280;40968;52.342;5.528;2023-01-29T06:59:59;102567.78;;;1.81;73.24
43161;BME280;40968;52.342;5.528;2023-01-29T07:02:26;102767.66;;;2.95;73.16
43161;BME280;40968;52.342;5.528;2023-01-29T07:04:53;102667.75;;;2.34;73.08
43161;BME280;40968;52.342;5.528;2023-01-29T07:07:20;102789.59;;;3.10;73.40
43161;BME280;40968;52.342;5.528;2023-01-29T07:09:46;102706.25;;;2.62;73.16
43161;BME280;40968;52.342;5.528;2023-01-29T07:12:13;102506.38;;;1.48;72.93
43161;BME280;40968;52.342;5.528;2023-01-29T07:14:40;102694.09;;;2.44;72.72
43161;BME280;40968;52.342;5.528;2023-01-29T07:17:08;102587.16;;;1.80;72.58
43161;BME280;40968;52.342;5.528;2023-01-29T07:19:34;102690.59;;;2.41;72.69
43161;BME280;40968;52.342;5.528;2023-01-29T07:22:01;102534.63;;;1.46;72.57
43161;BME280;40968;52.342;5.528;2023-01-29T07:24:28;102571.41;;;1.68;72.88
43161;BME280;40968;52.342;5.528;2023-01-29T07:26:54;102791.50;;;2.95;72.86
43161;BME280;40968;52.342;5.528;2023-01-29T07:29:21;102420.75;;;0.79;72.55
43161;BME280;40968;52.342;5.528;2023-01-29T07:31:48;102736.22;;;2.64;72.99
43161;BME280;40968;52.342;5.528;2023-01-29T07:34:16;102770.53;;;2.74;73.09
43161;BME280;40968;52.342;5.528;2023-01-29T07:36:43;102519.63;;;1.46;72.90
43161;BME280;40968;52.342;5.528;2023-01-29T07:39:09;102765.91;;;2.94;72.84
43161;BME280;40968;52.342;5.528;2023-01-29T07:41:36;102712.47;;;2.60;72.78
43161;BME280;40968;52.342;5.528;2023-01-29T07:44:03;102692.28;;;2.48;73.29
43161;BME280;40968;52.342;5.528;2023-01-29T07:46:29;102718.50;;;2.70;72.96
43161;BME280;40968;52.342;5.528;2023-01-29T07:48:57;102755.34;;;2.93;72.92
43161;BME280;40968;52.342;5.528;2023-01-29T07:51:24;102744.78;;;2.91;72.88
43161;BME280;40968;52.342;5.528;2023-01-29T07:53:51;102630.84;;;2.20;72.65
43161;BME280;40968;52.342;5.528;2023-01-29T07:56:18;102682.59;;;2.47;72.57
43161;BME280;40968;52.342;5.528;2023-01-29T07:58:44;102707.13;;;2.61;72.82
43161;BME280;40968;52.342;5.528;2023-01-29T08:01:11;102778.31;;;2.92;72.83
43161;BME280;40968;52.342;5.528;2023-01-29T08:03:38;102537.09;;;1.63;72.64
43161;BME280;40968;52.342;5.528;2023-01-29T08:06:04;102713.31;;;2.63;72.66
43161;BME280;40968;52.342;5.528;2023-01-29T08:08:33;102716.75;;;2.72;72.66
43161;BME280;40968;52.342;5.528;2023-01-29T08:11:00;102757.06;;;2.95;72.53
43161;BME280;40968;52.342;5.528;2023-01-29T08:13:29;102753.66;;;2.84;72.49
43161;BME280;40968;52.342;5.528;2023-01-29T08:15:58;102752.63;;;2.96;72.41
43161;BME280;40968;52.342;5.528;2023-01-29T08:18:25;102686.91;;;2.57;72.18
43161;BME280;40968;52.342;5.528;2023-01-29T08:20:52;102695.66;;;2.62;72.38
43161;BME280;40968;52.342;5.528;2023-01-29T08:23:18;102478.31;;;1.38;71.98
43161;BME280;40968;52.342;5.528;2023-01-29T08:25:47;102502.78;;;1.57;72.33
43161;BME280;40968;52.342;5.528;2023-01-29T08:28:13;102604.34;;;2.21;72.18
43161;BME280;40968;52.342;5.528;2023-01-29T08:30:40;102730.53;;;2.98;72.57
43161;BME280;40968;52.342;5.528;2023-01-29T08:33:08;102529.00;;;1.80;72.39
43161;BME280;40968;52.342;5.528;2023-01-29T08:35:35;102731.41;;;3.01;72.17
43161;BME280;40968;52.342;5.528;2023-01-29T08:38:04;102390.66;;;0.98;72.25
43161;BME280;40968;52.342;5.528;2023-01-29T08:40:33;102563.13;;;2.05;72.25
43161;BME280;40968;52.342;5.528;2023-01-29T08:43:02;102458.03;;;1.40;72.17
43161;BME280;40968;52.342;5.528;2023-01-29T08:45:30;102679.72;;;2.69;72.19
43161;BME280;40968;52.342;5.528;2023-01-29T08:47:58;102734.00;;;3.04;72.20
43161;BME280;40968;52.342;5.528;2023-01-29T08:50:25;102551.66;;;2.03;72.03
43161;BME280;40968;52.342;5.528;2023-01-29T08:52:56;102656.78;;;2.68;72.26
43161;BME280;40968;52.342;5.528;2023-01-29T08:55:23;102391.34;;;1.18;72.17
43161;BME280;40968;52.342;5.528;2023-01-29T08:57:49;102536.59;;;2.09;72.04
43161;BME280;40968;52.342;5.528;2023-01-29T09:00:18;102701.22;;;3.14;72.25
43161;BME280;40968;52.342;5.528;2023-01-29T09:02:45;102426.19;;;1.54;72.13
43161;BME280;40968;52.342;5.528;2023-01-29T09:05:11;102592.56;;;2.48;71.75
43161;BME280;40968;52.342;5.528;2023-01-29T09:07:38;102635.47;;;2.77;71.72
43161;BME280;40968;52.342;5.528;2023-01-29T09:10:05;102658.31;;;2.84;71.68
43161;BME280;40968;52.342;5.528;2023-01-29T09:12:32;102457.72;;;1.71;71.65
43161;BME280;40968;52.342;5.528;2023-01-29T09:14:59;102565.31;;;2.42;71.70
43161;BME280;40968;52.342;5.528;2023-01-29T09:17:27;102602.09;;;2.65;71.56
43161;BME280;40968;52.342;5.528;2023-01-29T09:19:53;102668.69;;;3.03;71.95
43161;BME280;40968;52.342;5.528;2023-01-29T09:22:20;102717.72;;;3.35;71.41
43161;BME280;40968;52.342;5.528;2023-01-29T09:24:46;102429.63;;;1.62;71.31
43161;BME280;40968;52.342;5.528;2023-01-29T09:27:13;102714.13;;;3.39;71.40
43161;BME280;40968;52.342;5.528;2023-01-29T09:29:40;102720.28;;;3.41;71.28
43161;BME280;40968;52.342;5.528;2023-01-29T09:32:07;102714.94;;;3.44;71.42
43161;BME280;40968;52.342;5.528;2023-01-29T09:34:35;102582.59;;;2.71;71.45
43161;BME280;40968;52.342;5.528;2023-01-29T09:37:02;102599.19;;;2.84;71.17
43161;BME280;40968;52.342;5.528;2023-01-29T09:39:28;102524.78;;;2.40;71.16
43161;BME280;40968;52.342;5.528;2023-01-29T09:41:58;102717.44;;;3.53;70.95
43161;BME280;40968;52.342;5.528;2023-01-29T09:44:41;102537.88;;;2.47;71.09
43161;BME280;40968;52.342;5.528;2023-01-29T09:47:13;102701.59;;;3.50;71.00
43161;BME280;40968;52.342;5.528;2023-01-29T09:49:45;102692.78;;;3.48;71.08
43161;BME280;40968;52.342;5.528;2023-01-29T09:52:16;102475.66;;;2.20;71.06
43161;BME280;40968;52.342;5.528;2023-01-29T09:54:50;102426.53;;;2.01;71.20
43161;BME280;40968;52.342;5.528;2023-01-29T09:57:24;102507.97;;;2.44;71.10
43161;BME280;40968;52.342;5.528;2023-01-29T09:59:53;102702.28;;;3.64;71.07
43161;BME280;40968;52.342;5.528;2023-01-29T10:02:35;102430.94;;;1.98;71.11
43161;BME280;40968;52.342;5.528;2023-01-29T10:05:20;102656.69;;;3.41;71.10
43161;BME280;40968;52.342;5.528;2023-01-29T10:11:17;102594.53;;;3.03;71.29
43161;BME280;40968;52.342;5.528;2023-01-29T10:13:51;102679.28;;;3.63;71.01
43161;BME280;40968;52.342;5.528;2023-01-29T10:16:40;102632.03;;;3.32;71.23
43161;BME280;40968;52.342;5.528;2023-01-29T10:22:16;102674.84;;;3.64;70.98
43161;BME280;40968;52.342;5.528;2023-01-29T10:24:49;102561.75;;;3.08;71.26
43161;BME280;40968;52.342;5.528;2023-01-29T10:27:18;102619.53;;;3.42;71.38
43161;BME280;40968;52.342;5.528;2023-01-29T10:29:47;102618.59;;;3.45;71.13
43161;BME280;40968;52.342;5.528;2023-01-29T10:32:18;102666.75;;;3.73;70.98
43161;BME280;40968;52.342;5.528;2023-01-29T10:34:49;102593.97;;;3.37;70.92
43161;BME280;40968;52.342;5.528;2023-01-29T10:37:22;102623.69;;;3.57;71.01
43161;BME280;40968;52.342;5.528;2023-01-29T10:39:50;102658.78;;;3.75;71.10
43161;BME280;40968;52.342;5.528;2023-01-29T10:42:26;102454.81;;;2.58;71.20
43161;BME280;40968;52.342;5.528;2023-01-29T10:45:05;102608.84;;;3.48;71.04
43161;BME280;40968;52.342;5.528;2023-01-29T10:50:41;102648.13;;;3.78;71.06
43161;BME280;40968;52.342;5.528;2023-01-29T10:53:29;102374.31;;;2.12;71.18
43161;BME280;40968;52.342;5.528;2023-01-29T10:56:08;102355.94;;;2.06;71.01
43161;BME280;40968;52.342;5.528;2023-01-29T10:58:44;102633.03;;;3.81;71.04
43161;BME280;40968;52.342;5.528;2023-01-29T11:01:13;102430.03;;;2.62;71.04
43161;BME280;40968;52.342;5.528;2023-01-29T11:03:39;102597.88;;;3.69;71.09
43161;BME280;40968;52.342;5.528;2023-01-29T11:06:11;102574.22;;;3.56;70.60
43161;BME280;40968;52.342;5.528;2023-01-29T11:08:48;102622.31;;;3.86;70.69
43161;BME280;40968;52.342;5.528;2023-01-29T11:11:17;102572.44;;;3.58;70.78
43161;BME280;40968;52.342;5.528;2023-01-29T11:13:51;102608.25;;;3.84;70.66
43161;BME280;40968;52.342;5.528;2023-01-29T11:16:20;102229.66;;;1.59;70.68
43161;BME280;40968;52.342;5.528;2023-01-29T11:18:55;102569.78;;;3.58;70.88
43161;BME280;40968;52.342;5.528;2023-01-29T11:21:23;102551.44;;;3.46;70.87
43161;BME280;40968;52.342;5.528;2023-01-29T11:24:04;102609.22;;;3.77;71.01
43161;BME280;40968;52.342;5.528;2023-01-29T11:26:32;102607.38;;;3.82;70.95
43161;BME280;40968;52.342;5.528;2023-01-29T11:29:00;102301.38;;;1.97;70.91
43161;BME280;40968;52.342;5.528;2023-01-29T11:52:32;102493.38;;;3.30;71.63
43161;BME280;40968;52.342;5.528;2023-01-29T11:55:02;102564.28;;;3.69;71.60
43161;BME280;40968;52.342;5.528;2023-01-29T11:57:31;102565.88;;;3.79;71.78
43161;BME280;40968;52.342;5.528;2023-01-29T12:00:02;102385.75;;;2.73;71.88
43161;BME280;40968;52.342;5.528;2023-01-29T12:02:34;102418.03;;;2.95;71.85
43161;BME280;40968;52.342;5.528;2023-01-29T12:05:05;102537.69;;;3.74;72.03
43161;BME280;40968;52.342;5.528;2023-01-29T13:02:39;102357.34;;;3.31;75.72
43161;BME280;40968;52.342;5.528;2023-01-29T13:05:17;102310.16;;;3.04;75.87
43161;BME280;40968;52.342;5.528;2023-01-29T13:10:28;102363.81;;;3.60;76.11
43161;BME280;40968;52.342;5.528;2023-01-29T13:13:01;102380.13;;;3.84;76.13
43161;BME280;40968;52.342;5.528;2023-01-29T13:15:35;102304.75;;;3.52;75.88
43161;BME280;40968;52.342;5.528;2023-01-29T13:18:31;102368.41;;;3.94;75.71
43161;BME280;40968;52.342;5.528;2023-01-29T13:20:59;102356.78;;;4.00;75.43
43161;BME280;40968;52.342;5.528;2023-01-29T13:23:31;102200.53;;;3.11;75.02
43161;BME280;40968;52.342;5.528;2023-01-29T13:25:59;102360.06;;;4.11;74.84
43161;BME280;40968;52.342;5.528;2023-01-29T13:28:26;102343.13;;;4.17;74.69
43161;BME280;40968;52.342;5.528;2023-01-29T13:31:17;102347.38;;;4.24;74.66
43161;BME280;40968;52.342;5.528;2023-01-29T13:33:53;102273.09;;;3.85;74.42
43161;BME280;40968;52.342;5.528;2023-01-29T13:36:24;102344.50;;;4.34;74.23
43161;BME280;40968;52.342;5.528;2023-01-29T13:42:35;102356.81;;;4.36;73.85
43161;BME280;40968;52.342;5.528;2023-01-29T13:45:05;102314.75;;;4.19;74.01
43161;BME280;40968;52.342;5.528;2023-01-29T13:47:35;102330.25;;;4.38;74.00
43161;BME280;40968;52.342;5.528;2023-01-29T13:50:05;102328.50;;;4.37;73.99
43161;BME280;40968;52.342;5.528;2023-01-29T13:52:37;102330.25;;;4.38;73.98
43161;BME280;40968;52.342;5.528;2023-01-29T13:55:20;102300.63;;;4.19;74.11
43161;BME280;40968;52.342;5.528;2023-01-29T13:57:51;102330.31;;;4.35;74.12
43161;BME280;40968;52.342;5.528;2023-01-29T14:00:48;102333.81;;;4.37;74.37
43161;BME280;40968;52.342;5.528;2023-01-29T14:06:48;102211.41;;;3.77;74.60
43161;BME280;40968;52.342;5.528;2023-01-29T14:12:31;102277.06;;;4.05;74.98
43161;BME280;40968;52.342;5.528;2023-01-29T14:15:03;102080.81;;;2.93;74.79
43161;BME280;40968;52.342;5.528;2023-01-29T14:17:31;102305.66;;;4.31;75.07
43161;BME280;40968;52.342;5.528;2023-01-29T14:20:01;102255.06;;;4.01;75.23
43161;BME280;40968;52.342;5.528;2023-01-29T14:26:53;102311.91;;;4.27;75.05
43161;BME280;40968;52.342;5.528;2023-01-29T14:29:23;102263.97;;;3.98;75.18
43161;BME280;40968;52.342;5.528;2023-01-29T14:31:52;102295.13;;;4.26;75.34
43161;BME280;40968;52.342;5.528;2023-01-29T14:34:25;102267.16;;;4.13;75.29
43161;BME280;40968;52.342;5.528;2023-01-29T14:36:54;102268.91;;;4.14;75.11
43161;BME280;40968;52.342;5.528;2023-01-29T14:39:33;102288.91;;;4.27;74.99
43161;BME280;40968;52.342;5.528;2023-01-29T14:42:12;102284.53;;;4.26;74.82
43161;BME280;40968;52.342;5.528;2023-01-29T14:44:58;102285.38;;;4.27;74.61
43161;BME280;40968;52.342;5.528;2023-01-29T14:47:54;102259.88;;;4.21;74.59
43161;BME280;40968;52.342;5.528;2023-01-29T14:50:44;102283.53;;;4.30;74.54
43161;BME280;40968;52.342;5.528;2023-01-29T14:53:15;102272.09;;;4.28;74.29
43161;BME280;40968;52.342;5.528;2023-01-29T14:55:46;102266.09;;;4.20;74.09
43161;BME280;40968;52.342;5.528;2023-01-29T14:58:20;102229.34;;;4.03;74.03
43161;BME280;40968;52.342;5.528;2023-01-29T15:00:51;102262.19;;;4.34;73.90
43161;BME280;40968;52.342;5.528;2023-01-29T15:03:27;102210.53;;;4.14;74.09